sensor_id;sensor_type;location;lat;lon;timestamp;temperature;humidity
17202;DHT22;8717;53.588;10.176;2023-04-06T00:00:09;0.40;98.70
17202;DHT22;8717;53.588;10.176;2023-04-06T00:02:37;0.40;98.80
17202;DHT22;8717;53.588;10.176;2023-04-06T00:05:04;0.40;98.90
17202;DHT22;8717;53.588;10.176;2023-04-06T00:07:31;0.40;99.10
17202;DHT22;8717;53.588;10.176;2023-04-06T00:10:00;0.40;99.00
17202;DHT22;8717;53.588;10.176;2023-04-06T00:12:26;0.40;99.10
17202;DHT22;8717;53.588;10.176;2023-04-06T00:14:53;0.30;99.30
17202;DHT22;8717;53.588;10.176;2023-04-06T00:17:20;0.40;99.30
17202;DHT22;8717;53.588;10.176;2023-04-06T00:19:47;0.30;99.30
17202;DHT22;8717;53.588;10.176;2023-04-06T00:22:13;0.30;99.60
17202;DHT22;8717;53.588;10.176;2023-04-06T00:24:40;0.20;99.70
17202;DHT22;8717;53.588;10.176;2023-04-06T00:27:08;0.20;99.70
17202;DHT22;8717;53.588;10.176;2023-04-06T00:29:35;0.20;99.90
17202;DHT22;8717;53.588;10.176;2023-04-06T00:32:02;0.10;99.90
17202;DHT22;8717;53.588;10.176;2023-04-06T00:34:29;0.10;99.90
17202;DHT22;8717;53.588;10.176;2023-04-06T00:36:56;0.10;99.90
17202;DHT22;8717;53.588;10.176;2023-04-06T00:39:23;0.10;99.90
17202;DHT22;8717;53.588;10.176;2023-04-06T00:41:51;0.00;99.90
17202;DHT22;8717;53.588;10.176;2023-04-06T00:44:20;0.00;99.90
17202;DHT22;8717;53.588;10.176;2023-04-06T00:46:48;0.00;99.90
17202;DHT22;8717;53.588;10.176;2023-04-06T00:49:16;0.00;99.90
17202;DHT22;8717;53.588;10.176;2023-04-06T00:51:43;-0.10;99.90
17202;DHT22;8717;53.588;10.176;2023-04-06T00:54:10;-0.10;99.90
17202;DHT22;8717;53.588;10.176;2023-04-06T00:56:36;-0.10;99.90
17202;DHT22;8717;53.588;10.176;2023-04-06T00:59:03;-0.10;99.90
17202;DHT22;8717;53.588;10.176;2023-04-06T01:01:32;-0.10;99.90
17202;DHT22;8717;53.588;10.176;2023-04-06T01:04:03;-0.10;99.90
17202;DHT22;8717;53.588;10.176;2023-04-06T01:06:37;-0.10;99.90
17202;DHT22;8717;53.588;10.176;2023-04-06T01:09:04;-0.20;99.90
17202;DHT22;8717;53.588;10.176;2023-04-06T01:11:30;-0.20;99.90
17202;DHT22;8717;53.588;10.176;2023-04-06T01:13:57;-0.20;99.90
17202;DHT22;8717;53.588;10.176;2023-04-06T01:16:27;-0.20;99.90
17202;DHT22;8717;53.588;10.176;2023-04-06T01:19:08;-0.20;99.90
17202;DHT22;8717;53.588;10.176;2023-04-06T01:21:35;-0.30;99.90
17202;DHT22;8717;53.588;10.176;2023-04-06T01:28:01;-0.40;99.90
17202;DHT22;8717;53.588;10.176;2023-04-06T01:30:44;-0.40;99.90
17202;DHT22;8717;53.588;10.176;2023-04-06T01:33:24;-0.40;99.90
17202;DHT22;8717;53.588;10.176;2023-04-06T01:36:04;-0.50;99.90
17202;DHT22;8717;53.588;10.176;2023-04-06T01:38:31;-0.50;99.90
17202;DHT22;8717;53.588;10.176;2023-04-06T01:40:58;-0.50;99.90
17202;DHT22;8717;53.588;10.176;2023-04-06T01:43:30;-0.60;99.90
17202;DHT22;8717;53.588;10.176;2023-04-06T01:46:04;-0.60;99.90
17202;DHT22;8717;53.588;10.176;2023-04-06T01:48:34;-0.70;99.90
17202;DHT22;8717;53.588;10.176;2023-04-06T01:51:10;-0.70;99.90
17202;DHT22;8717;53.588;10.176;2023-04-06T01:53:45;-0.80;99.90
17202;DHT22;8717;53.588;10.176;2023-04-06T01:56:11;-0.80;99.90
17202;DHT22;8717;53.588;10.176;2023-04-06T01:58:46;-0.80;99.90
17202;DHT22;8717;53.588;10.176;2023-04-06T02:01:15;-0.80;99.90
17202;DHT22;8717;53.588;10.176;2023-04-06T02:03:53;-0.90;99.90
17202;DHT22;8717;53.588;10.176;2023-04-06T02:06:21;-0.90;99.90
17202;DHT22;8717;53.588;10.176;2023-04-06T02:08:48;-0.90;99.90
17202;DHT22;8717;53.588;10.176;2023-04-06T02:11:15;-0.90;99.90
17202;DHT22;8717;53.588;10.176;2023-04-06T02:13:48;-0.90;99.90
17202;DHT22;8717;53.588;10.176;2023-04-06T02:16:15;-0.90;99.90
17202;DHT22;8717;53.588;10.176;2023-04-06T02:18:44;-1.00;99.90
17202;DHT22;8717;53.588;10.176;2023-04-06T02:21:11;-1.00;99.90
17202;DHT22;8717;53.588;10.176;2023-04-06T02:23:38;-1.00;99.90
17202;DHT22;8717;53.588;10.176;2023-04-06T02:26:04;-1.00;99.90
17202;DHT22;8717;53.588;10.176;2023-04-06T02:28:31;-0.90;99.90
17202;DHT22;8717;53.588;10.176;2023-04-06T02:31:02;-1.00;99.90
17202;DHT22;8717;53.588;10.176;2023-04-06T02:33:29;-0.90;99.90
17202;DHT22;8717;53.588;10.176;2023-04-06T02:35:56;-1.00;99.90
17202;DHT22;8717;53.588;10.176;2023-04-06T02:38:22;-1.00;99.90
17202;DHT22;8717;53.588;10.176;2023-04-06T02:40:51;-1.00;99.90
17202;DHT22;8717;53.588;10.176;2023-04-06T02:43:21;-1.00;99.90
17202;DHT22;8717;53.588;10.176;2023-04-06T02:45:51;-1.00;99.90
17202;DHT22;8717;53.588;10.176;2023-04-06T02:48:22;-1.00;99.90
17202;DHT22;8717;53.588;10.176;2023-04-06T02:50:49;-0.90;99.90
17202;DHT22;8717;53.588;10.176;2023-04-06T02:53:16;-1.00;99.90
17202;DHT22;8717;53.588;10.176;2023-04-06T02:55:43;-0.90;99.90
17202;DHT22;8717;53.588;10.176;2023-04-06T02:58:10;-0.90;99.90
17202;DHT22;8717;53.588;10.176;2023-04-06T03:00:44;-0.90;99.90
17202;DHT22;8717;53.588;10.176;2023-04-06T03:03:11;-0.90;99.90
17202;DHT22;8717;53.588;10.176;2023-04-06T03:05:42;-0.90;99.90
17202;DHT22;8717;53.588;10.176;2023-04-06T03:08:10;-0.90;99.90
17202;DHT22;8717;53.588;10.176;2023-04-06T03:10:43;-0.90;99.90
17202;DHT22;8717;53.588;10.176;2023-04-06T03:13:10;-1.00;99.90
17202;DHT22;8717;53.588;10.176;2023-04-06T03:16:04;-1.00;99.90
17202;DHT22;8717;53.588;10.176;2023-04-06T03:18:31;-1.00;99.90
17202;DHT22;8717;53.588;10.176;2023-04-06T03:21:00;-1.00;99.90
17202;DHT22;8717;53.588;10.176;2023-04-06T03:23:35;-1.00;99.90
17202;DHT22;8717;53.588;10.176;2023-04-06T03:26:03;-1.00;99.90
17202;DHT22;8717;53.588;10.176;2023-04-06T03:28:30;-1.00;99.90
17202;DHT22;8717;53.588;10.176;2023-04-06T03:31:01;-1.00;99.90
17202;DHT22;8717;53.588;10.176;2023-04-06T03:33:45;-1.00;99.90
17202;DHT22;8717;53.588;10.176;2023-04-06T03:36:33;-1.10;99.90
17202;DHT22;8717;53.588;10.176;2023-04-06T03:39:02;-1.10;99.90
17202;DHT22;8717;53.588;10.176;2023-04-06T03:41:31;-1.10;99.90
17202;DHT22;8717;53.588;10.176;2023-04-06T03:44:09;-1.10;99.90
17202;DHT22;8717;53.588;10.176;2023-04-06T03:46:36;-1.10;99.90
17202;DHT22;8717;53.588;10.176;2023-04-06T03:49:03;-1.10;99.90
17202;DHT22;8717;53.588;10.176;2023-04-06T03:51:30;-1.10;99.90
17202;DHT22;8717;53.588;10.176;2023-04-06T03:53:58;-1.20;99.90
17202;DHT22;8717;53.588;10.176;2023-04-06T03:56:25;-1.20;99.90
17202;DHT22;8717;53.588;10.176;2023-04-06T03:58:53;-1.20;99.90
17202;DHT22;8717;53.588;10.176;2023-04-06T04:01:20;-1.30;99.90
17202;DHT22;8717;53.588;10.176;2023-04-06T04:03:47;-1.30;99.90
17202;DHT22;8717;53.588;10.176;2023-04-06T04:06:14;-1.30;99.90
17202;DHT22;8717;53.588;10.176;2023-04-06T04:08:41;-1.30;99.90
17202;DHT22;8717;53.588;10.176;2023-04-06T04:11:09;-1.40;99.90
17202;DHT22;8717;53.588;10.176;2023-04-06T04:13:36;-1.40;99.90
17202;DHT22;8717;53.588;10.176;2023-04-06T04:16:05;-1.40;99.90
17202;DHT22;8717;53.588;10.176;2023-04-06T04:18:31;-1.40;99.90
17202;DHT22;8717;53.588;10.176;2023-04-06T04:20:58;-1.50;99.90
17202;DHT22;8717;53.588;10.176;2023-04-06T04:23:25;-1.50;99.90
17202;DHT22;8717;53.588;10.176;2023-04-06T04:25:52;-1.50;99.90
17202;DHT22;8717;53.588;10.176;2023-04-06T04:28:20;-1.50;99.90
17202;DHT22;8717;53.588;10.176;2023-04-06T04:30:47;-1.60;99.90
17202;DHT22;8717;53.588;10.176;2023-04-06T04:33:14;-1.60;99.90
17202;DHT22;8717;53.588;10.176;2023-04-06T04:35:42;-1.60;99.90
17202;DHT22;8717;53.588;10.176;2023-04-06T04:38:12;-1.60;99.90
17202;DHT22;8717;53.588;10.176;2023-04-06T04:40:41;-1.70;99.90
17202;DHT22;8717;53.588;10.176;2023-04-06T04:43:10;-1.60;99.90
17202;DHT22;8717;53.588;10.176;2023-04-06T04:45:39;-1.60;99.90
17202;DHT22;8717;53.588;10.176;2023-04-06T04:48:16;-1.70;99.90
17202;DHT22;8717;53.588;10.176;2023-04-06T04:50:59;-1.70;99.90
17202;DHT22;8717;53.588;10.176;2023-04-06T04:53:34;-1.70;99.90
17202;DHT22;8717;53.588;10.176;2023-04-06T04:56:09;-1.60;99.90
17202;DHT22;8717;53.588;10.176;2023-04-06T04:58:36;-1.60;99.90
17202;DHT22;8717;53.588;10.176;2023-04-06T05:01:05;-1.60;99.90
17202;DHT22;8717;53.588;10.176;2023-04-06T05:03:32;-1.60;99.90
17202;DHT22;8717;53.588;10.176;2023-04-06T05:06:05;-1.60;99.90
17202;DHT22;8717;53.588;10.176;2023-04-06T05:08:35;-1.50;99.90
17202;DHT22;8717;53.588;10.176;2023-04-06T05:11:03;-1.50;99.90
17202;DHT22;8717;53.588;10.176;2023-04-06T05:13:35;-1.50;99.90
17202;DHT22;8717;53.588;10.176;2023-04-06T05:16:09;-1.50;99.90
17202;DHT22;8717;53.588;10.176;2023-04-06T05:18:36;-1.40;99.90
17202;DHT22;8717;53.588;10.176;2023-04-06T05:21:04;-1.40;99.90
17202;DHT22;8717;53.588;10.176;2023-04-06T05:23:51;-1.40;99.90
17202;DHT22;8717;53.588;10.176;2023-04-06T05:26:19;-1.30;99.90
17202;DHT22;8717;53.588;10.176;2023-04-06T05:28:46;-1.30;99.90
17202;DHT22;8717;53.588;10.176;2023-04-06T05:31:15;-1.20;99.90
17202;DHT22;8717;53.588;10.176;2023-04-06T05:33:47;-1.20;99.90
17202;DHT22;8717;53.588;10.176;2023-04-06T05:36:15;-1.10;99.90
17202;DHT22;8717;53.588;10.176;2023-04-06T05:38:45;-1.10;99.90
17202;DHT22;8717;53.588;10.176;2023-04-06T05:41:31;-1.00;99.90
17202;DHT22;8717;53.588;10.176;2023-04-06T05:43:57;-0.80;99.90
17202;DHT22;8717;53.588;10.176;2023-04-06T05:46:26;-0.70;99.90
17202;DHT22;8717;53.588;10.176;2023-04-06T05:48:55;-0.50;99.90
17202;DHT22;8717;53.588;10.176;2023-04-06T05:51:25;-0.30;99.90
17202;DHT22;8717;53.588;10.176;2023-04-06T05:53:53;0.00;99.90
17202;DHT22;8717;53.588;10.176;2023-04-06T05:56:20;0.20;99.90
17202;DHT22;8717;53.588;10.176;2023-04-06T05:58:46;0.40;99.90
17202;DHT22;8717;53.588;10.176;2023-04-06T06:01:19;0.60;99.90
17202;DHT22;8717;53.588;10.176;2023-04-06T06:03:48;0.70;99.90
17202;DHT22;8717;53.588;10.176;2023-04-06T06:06:15;0.80;99.90
17202;DHT22;8717;53.588;10.176;2023-04-06T06:09:06;0.90;99.90
17202;DHT22;8717;53.588;10.176;2023-04-06T06:11:39;1.10;99.90
17202;DHT22;8717;53.588;10.176;2023-04-06T06:14:07;1.10;99.90
17202;DHT22;8717;53.588;10.176;2023-04-06T06:16:37;1.30;99.90
17202;DHT22;8717;53.588;10.176;2023-04-06T06:19:06;1.50;99.90
17202;DHT22;8717;53.588;10.176;2023-04-06T06:21:34;1.70;99.90
17202;DHT22;8717;53.588;10.176;2023-04-06T06:24:02;1.90;99.90
17202;DHT22;8717;53.588;10.176;2023-04-06T06:26:30;2.10;99.90
17202;DHT22;8717;53.588;10.176;2023-04-06T06:28:57;2.40;99.90
17202;DHT22;8717;53.588;10.176;2023-04-06T06:31:24;2.60;99.90
17202;DHT22;8717;53.588;10.176;2023-04-06T06:33:51;2.70;99.90
17202;DHT22;8717;53.588;10.176;2023-04-06T06:36:21;2.80;99.90
17202;DHT22;8717;53.588;10.176;2023-04-06T06:38:48;2.90;99.90
17202;DHT22;8717;53.588;10.176;2023-04-06T06:41:17;3.00;99.90
17202;DHT22;8717;53.588;10.176;2023-04-06T06:43:44;3.10;99.90
17202;DHT22;8717;53.588;10.176;2023-04-06T06:46:11;3.20;99.90
17202;DHT22;8717;53.588;10.176;2023-04-06T06:48:39;3.40;99.90
17202;DHT22;8717;53.588;10.176;2023-04-06T06:51:06;3.50;99.90
17202;DHT22;8717;53.588;10.176;2023-04-06T06:53:34;3.60;99.90
17202;DHT22;8717;53.588;10.176;2023-04-06T06:56:01;3.60;99.90
17202;DHT22;8717;53.588;10.176;2023-04-06T06:58:29;3.70;99.90
17202;DHT22;8717;53.588;10.176;2023-04-06T07:00:56;3.80;99.90
17202;DHT22;8717;53.588;10.176;2023-04-06T07:03:23;3.80;99.90
17202;DHT22;8717;53.588;10.176;2023-04-06T07:05:50;3.80;99.90
17202;DHT22;8717;53.588;10.176;2023-04-06T07:08:19;3.70;99.90
17202;DHT22;8717;53.588;10.176;2023-04-06T07:10:48;3.70;99.90
17202;DHT22;8717;53.588;10.176;2023-04-06T07:13:15;3.70;99.90
17202;DHT22;8717;53.588;10.176;2023-04-06T07:15:46;3.60;99.90
17202;DHT22;8717;53.588;10.176;2023-04-06T07:18:13;3.60;99.90
17202;DHT22;8717;53.588;10.176;2023-04-06T07:20:40;3.70;99.90
17202;DHT22;8717;53.588;10.176;2023-04-06T07:23:07;3.70;99.90
17202;DHT22;8717;53.588;10.176;2023-04-06T07:25:33;3.80;99.80
17202;DHT22;8717;53.588;10.176;2023-04-06T07:28:03;3.90;99.40
17202;DHT22;8717;53.588;10.176;2023-04-06T07:30:31;3.90;99.50
17202;DHT22;8717;53.588;10.176;2023-04-06T07:32:59;4.00;99.90
17202;DHT22;8717;53.588;10.176;2023-04-06T07:35:27;4.10;99.90
17202;DHT22;8717;53.588;10.176;2023-04-06T07:37:55;4.10;99.50
17202;DHT22;8717;53.588;10.176;2023-04-06T07:40:23;4.10;98.90
17202;DHT22;8717;53.588;10.176;2023-04-06T07:42:52;4.20;99.20
17202;DHT22;8717;53.588;10.176;2023-04-06T07:45:20;4.30;99.40
17202;DHT22;8717;53.588;10.176;2023-04-06T07:47:47;4.40;99.10
17202;DHT22;8717;53.588;10.176;2023-04-06T07:50:14;4.40;98.70
17202;DHT22;8717;53.588;10.176;2023-04-06T07:52:41;4.60;98.80
17202;DHT22;8717;53.588;10.176;2023-04-06T07:55:08;4.90;99.20
17202;DHT22;8717;53.588;10.176;2023-04-06T07:57:35;5.40;98.00
17202;DHT22;8717;53.588;10.176;2023-04-06T08:00:02;6.00;98.50
17202;DHT22;8717;53.588;10.176;2023-04-06T08:02:39;6.60;95.60
17202;DHT22;8717;53.588;10.176;2023-04-06T08:05:06;7.40;96.60
17202;DHT22;8717;53.588;10.176;2023-04-06T08:07:32;8.10;97.20
17202;DHT22;8717;53.588;10.176;2023-04-06T08:09:59;8.90;97.50
17202;DHT22;8717;53.588;10.176;2023-04-06T08:12:28;9.70;96.30
17202;DHT22;8717;53.588;10.176;2023-04-06T08:14:55;10.50;90.60
17202;DHT22;8717;53.588;10.176;2023-04-06T08:17:22;11.20;88.20
17202;DHT22;8717;53.588;10.176;2023-04-06T08:19:50;11.60;82.00
17202;DHT22;8717;53.588;10.176;2023-04-06T08:22:17;12.10;85.10
17202;DHT22;8717;53.588;10.176;2023-04-06T08:24:44;12.50;87.70
17202;DHT22;8717;53.588;10.176;2023-04-06T08:27:10;12.90;84.80
17202;DHT22;8717;53.588;10.176;2023-04-06T08:29:39;13.30;80.70
17202;DHT22;8717;53.588;10.176;2023-04-06T08:32:06;13.50;74.50
17202;DHT22;8717;53.588;10.176;2023-04-06T08:34:33;13.70;69.80
17202;DHT22;8717;53.588;10.176;2023-04-06T08:37:02;13.80;67.10
17202;DHT22;8717;53.588;10.176;2023-04-06T08:39:30;14.00;64.50
17202;DHT22;8717;53.588;10.176;2023-04-06T08:41:59;14.10;65.50
17202;DHT22;8717;53.588;10.176;2023-04-06T08:44:28;14.10;61.80
17202;DHT22;8717;53.588;10.176;2023-04-06T08:46:55;14.10;61.40
17202;DHT22;8717;53.588;10.176;2023-04-06T08:49:25;14.10;63.40
17202;DHT22;8717;53.588;10.176;2023-04-06T08:51:52;14.30;62.40
17202;DHT22;8717;53.588;10.176;2023-04-06T08:54:21;14.30;59.20
17202;DHT22;8717;53.588;10.176;2023-04-06T08:56:48;14.30;55.60
17202;DHT22;8717;53.588;10.176;2023-04-06T08:59:15;14.20;54.20
17202;DHT22;8717;53.588;10.176;2023-04-06T09:01:44;14.20;57.50
17202;DHT22;8717;53.588;10.176;2023-04-06T09:04:11;14.20;53.50
17202;DHT22;8717;53.588;10.176;2023-04-06T09:06:39;14.20;55.60
17202;DHT22;8717;53.588;10.176;2023-04-06T09:09:06;14.30;54.30
17202;DHT22;8717;53.588;10.176;2023-04-06T09:11:48;14.20;54.20
17202;DHT22;8717;53.588;10.176;2023-04-06T09:14:15;14.30;56.50
17202;DHT22;8717;53.588;10.176;2023-04-06T09:16:43;14.30;53.80
17202;DHT22;8717;53.588;10.176;2023-04-06T09:19:11;14.50;54.70
17202;DHT22;8717;53.588;10.176;2023-04-06T09:21:39;14.40;50.80
17202;DHT22;8717;53.588;10.176;2023-04-06T09:24:09;14.40;50.30
17202;DHT22;8717;53.588;10.176;2023-04-06T09:26:45;14.50;51.70
17202;DHT22;8717;53.588;10.176;2023-04-06T09:29:22;14.50;51.50
17202;DHT22;8717;53.588;10.176;2023-04-06T09:31:48;14.60;50.20
17202;DHT22;8717;53.588;10.176;2023-04-06T09:34:20;14.60;50.40
17202;DHT22;8717;53.588;10.176;2023-04-06T09:36:47;14.60;49.40
17202;DHT22;8717;53.588;10.176;2023-04-06T09:39:14;14.60;52.00
17202;DHT22;8717;53.588;10.176;2023-04-06T09:41:41;14.50;48.20
17202;DHT22;8717;53.588;10.176;2023-04-06T09:44:09;14.60;51.90
17202;DHT22;8717;53.588;10.176;2023-04-06T09:46:38;14.50;50.30
17202;DHT22;8717;53.588;10.176;2023-04-06T09:49:07;14.50;51.40
17202;DHT22;8717;53.588;10.176;2023-04-06T09:51:37;14.60;51.80
17202;DHT22;8717;53.588;10.176;2023-04-06T09:54:04;14.70;51.00
17202;DHT22;8717;53.588;10.176;2023-04-06T09:56:39;14.80;51.60
17202;DHT22;8717;53.588;10.176;2023-04-06T09:59:10;14.90;51.00
17202;DHT22;8717;53.588;10.176;2023-04-06T10:01:40;15.00;51.90
17202;DHT22;8717;53.588;10.176;2023-04-06T10:04:21;15.00;50.30
17202;DHT22;8717;53.588;10.176;2023-04-06T10:06:48;14.80;48.90
17202;DHT22;8717;53.588;10.176;2023-04-06T10:09:18;14.70;51.80
17202;DHT22;8717;53.588;10.176;2023-04-06T10:11:46;14.70;51.00
17202;DHT22;8717;53.588;10.176;2023-04-06T10:14:15;14.70;50.60
17202;DHT22;8717;53.588;10.176;2023-04-06T10:16:43;14.80;50.90
17202;DHT22;8717;53.588;10.176;2023-04-06T10:19:16;14.80;50.40
17202;DHT22;8717;53.588;10.176;2023-04-06T10:21:48;14.90;48.10
17202;DHT22;8717;53.588;10.176;2023-04-06T10:24:17;15.00;48.60
17202;DHT22;8717;53.588;10.176;2023-04-06T10:26:56;15.00;48.80
17202;DHT22;8717;53.588;10.176;2023-04-06T10:29:26;15.00;46.30
17202;DHT22;8717;53.588;10.176;2023-04-06T10:31:54;15.00;45.50
17202;DHT22;8717;53.588;10.176;2023-04-06T10:34:34;15.00;45.70
17202;DHT22;8717;53.588;10.176;2023-04-06T10:37:11;15.00;46.90
17202;DHT22;8717;53.588;10.176;2023-04-06T10:39:46;15.10;48.70
17202;DHT22;8717;53.588;10.176;2023-04-06T10:42:13;15.20;48.80
17202;DHT22;8717;53.588;10.176;2023-04-06T10:44:42;15.30;48.00
17202;DHT22;8717;53.588;10.176;2023-04-06T10:47:17;15.60;49.10
17202;DHT22;8717;53.588;10.176;2023-04-06T10:49:44;15.80;47.10
17202;DHT22;8717;53.588;10.176;2023-04-06T10:52:11;16.00;47.90
17202;DHT22;8717;53.588;10.176;2023-04-06T10:54:41;15.90;46.40
17202;DHT22;8717;53.588;10.176;2023-04-06T10:57:08;16.00;46.10
17202;DHT22;8717;53.588;10.176;2023-04-06T10:59:35;16.00;46.60
17202;DHT22;8717;53.588;10.176;2023-04-06T11:02:02;15.90;44.80
17202;DHT22;8717;53.588;10.176;2023-04-06T11:04:30;16.00;47.50
17202;DHT22;8717;53.588;10.176;2023-04-06T11:06:57;16.00;46.60
17202;DHT22;8717;53.588;10.176;2023-04-06T11:09:27;16.10;46.90
17202;DHT22;8717;53.588;10.176;2023-04-06T11:11:55;16.20;47.40
17202;DHT22;8717;53.588;10.176;2023-04-06T11:14:22;16.20;43.80
17202;DHT22;8717;53.588;10.176;2023-04-06T11:16:49;16.20;44.70
17202;DHT22;8717;53.588;10.176;2023-04-06T11:19:17;16.20;45.50
17202;DHT22;8717;53.588;10.176;2023-04-06T11:21:49;16.10;45.00
17202;DHT22;8717;53.588;10.176;2023-04-06T11:24:16;16.10;46.60
17202;DHT22;8717;53.588;10.176;2023-04-06T11:26:48;16.20;47.20
17202;DHT22;8717;53.588;10.176;2023-04-06T11:29:17;16.20;46.80
17202;DHT22;8717;53.588;10.176;2023-04-06T11:31:47;16.40;45.90
17202;DHT22;8717;53.588;10.176;2023-04-06T11:34:16;16.50;46.90
17202;DHT22;8717;53.588;10.176;2023-04-06T11:36:46;16.40;43.80
17202;DHT22;8717;53.588;10.176;2023-04-06T11:39:18;16.40;44.70
17202;DHT22;8717;53.588;10.176;2023-04-06T11:41:47;16.40;46.20
17202;DHT22;8717;53.588;10.176;2023-04-06T11:44:26;16.40;45.10
17202;DHT22;8717;53.588;10.176;2023-04-06T11:46:53;16.40;44.80
17202;DHT22;8717;53.588;10.176;2023-04-06T11:49:20;16.10;43.70
17202;DHT22;8717;53.588;10.176;2023-04-06T11:51:48;16.00;44.60
17202;DHT22;8717;53.588;10.176;2023-04-06T11:54:15;16.00;45.30
17202;DHT22;8717;53.588;10.176;2023-04-06T11:56:42;15.80;44.00
17202;DHT22;8717;53.588;10.176;2023-04-06T11:59:12;15.70;45.40
17202;DHT22;8717;53.588;10.176;2023-04-06T12:01:45;15.60;44.20
17202;DHT22;8717;53.588;10.176;2023-04-06T12:04:12;15.60;45.60
17202;DHT22;8717;53.588;10.176;2023-04-06T12:06:38;15.60;45.00
17202;DHT22;8717;53.588;10.176;2023-04-06T12:09:09;15.50;45.10
17202;DHT22;8717;53.588;10.176;2023-04-06T12:11:35;15.30;43.70
17202;DHT22;8717;53.588;10.176;2023-04-06T12:14:03;15.40;46.00
17202;DHT22;8717;53.588;10.176;2023-04-06T12:16:31;15.30;45.70
17202;DHT22;8717;53.588;10.176;2023-04-06T12:18:57;15.20;45.00
17202;DHT22;8717;53.588;10.176;2023-04-06T12:21:24;15.20;44.20
17202;DHT22;8717;53.588;10.176;2023-04-06T12:23:51;15.20;45.20
17202;DHT22;8717;53.588;10.176;2023-04-06T12:26:19;15.20;46.70
17202;DHT22;8717;53.588;10.176;2023-04-06T12:28:45;15.30;47.00
17202;DHT22;8717;53.588;10.176;2023-04-06T12:31:14;15.40;46.90
17202;DHT22;8717;53.588;10.176;2023-04-06T12:33:42;15.50;46.10
17202;DHT22;8717;53.588;10.176;2023-04-06T12:36:13;15.60;46.40
17202;DHT22;8717;53.588;10.176;2023-04-06T12:38:41;15.70;45.40
17202;DHT22;8717;53.588;10.176;2023-04-06T12:41:10;15.60;44.60
17202;DHT22;8717;53.588;10.176;2023-04-06T12:43:38;15.60;44.60
17202;DHT22;8717;53.588;10.176;2023-04-06T12:46:05;15.60;45.20
17202;DHT22;8717;53.588;10.176;2023-04-06T12:48:32;15.50;46.50
17202;DHT22;8717;53.588;10.176;2023-04-06T12:51:00;15.60;45.10
17202;DHT22;8717;53.588;10.176;2023-04-06T12:53:27;15.70;46.90
17202;DHT22;8717;53.588;10.176;2023-04-06T12:55:54;15.50;45.10
17202;DHT22;8717;53.588;10.176;2023-04-06T12:58:21;15.50;44.00
17202;DHT22;8717;53.588;10.176;2023-04-06T13:00:50;15.50;45.00
17202;DHT22;8717;53.588;10.176;2023-04-06T13:03:17;15.50;45.20
17202;DHT22;8717;53.588;10.176;2023-04-06T13:05:44;15.30;44.90
17202;DHT22;8717;53.588;10.176;2023-04-06T13:08:11;15.30;45.90
17202;DHT22;8717;53.588;10.176;2023-04-06T13:10:42;15.40;45.90
17202;DHT22;8717;53.588;10.176;2023-04-06T13:13:09;15.40;46.20
17202;DHT22;8717;53.588;10.176;2023-04-06T13:15:36;15.40;45.80
17202;DHT22;8717;53.588;10.176;2023-04-06T13:18:04;15.50;46.10
17202;DHT22;8717;53.588;10.176;2023-04-06T13:20:32;15.40;44.40
17202;DHT22;8717;53.588;10.176;2023-04-06T13:22:58;15.10;43.80
17202;DHT22;8717;53.588;10.176;2023-04-06T13:25:25;15.10;44.70
17202;DHT22;8717;53.588;10.176;2023-04-06T13:27:53;14.90;45.10
17202;DHT22;8717;53.588;10.176;2023-04-06T13:30:22;14.80;45.70
17202;DHT22;8717;53.588;10.176;2023-04-06T13:32:48;14.80;47.30
17202;DHT22;8717;53.588;10.176;2023-04-06T13:35:18;14.80;46.20
17202;DHT22;8717;53.588;10.176;2023-04-06T13:37:45;14.90;46.00
17202;DHT22;8717;53.588;10.176;2023-04-06T13:40:14;14.80;46.00
17202;DHT22;8717;53.588;10.176;2023-04-06T13:42:41;14.60;45.10
17202;DHT22;8717;53.588;10.176;2023-04-06T13:45:10;14.60;45.70
17202;DHT22;8717;53.588;10.176;2023-04-06T13:47:37;14.50;46.10
17202;DHT22;8717;53.588;10.176;2023-04-06T13:50:05;14.50;47.20
17202;DHT22;8717;53.588;10.176;2023-04-06T13:52:33;14.50;46.10
17202;DHT22;8717;53.588;10.176;2023-04-06T13:55:01;14.50;46.00
17202;DHT22;8717;53.588;10.176;2023-04-06T13:57:28;14.50;46.50
17202;DHT22;8717;53.588;10.176;2023-04-06T13:59:55;14.40;45.50
17202;DHT22;8717;53.588;10.176;2023-04-06T14:02:22;14.30;45.50
17202;DHT22;8717;53.588;10.176;2023-04-06T14:04:52;14.20;46.80
17202;DHT22;8717;53.588;10.176;2023-04-06T14:07:20;14.20;46.30
17202;DHT22;8717;53.588;10.176;2023-04-06T14:09:48;14.10;46.70
17202;DHT22;8717;53.588;10.176;2023-04-06T14:12:15;14.10;47.60
17202;DHT22;8717;53.588;10.176;2023-04-06T14:14:41;14.10;47.90
17202;DHT22;8717;53.588;10.176;2023-04-06T14:17:08;14.10;46.10
17202;DHT22;8717;53.588;10.176;2023-04-06T14:19:35;14.20;46.90
17202;DHT22;8717;53.588;10.176;2023-04-06T14:22:02;14.20;47.10
17202;DHT22;8717;53.588;10.176;2023-04-06T14:24:29;14.20;47.40
17202;DHT22;8717;53.588;10.176;2023-04-06T14:26:57;14.20;46.90
17202;DHT22;8717;53.588;10.176;2023-04-06T14:29:24;14.10;46.90
17202;DHT22;8717;53.588;10.176;2023-04-06T14:31:51;14.10;47.50
17202;DHT22;8717;53.588;10.176;2023-04-06T14:34:18;14.10;46.90
17202;DHT22;8717;53.588;10.176;2023-04-06T14:36:44;14.10;46.70
17202;DHT22;8717;53.588;10.176;2023-04-06T14:39:11;14.00;47.20
17202;DHT22;8717;53.588;10.176;2023-04-06T14:41:38;14.10;48.50
17202;DHT22;8717;53.588;10.176;2023-04-06T14:44:06;14.10;48.80
17202;DHT22;8717;53.588;10.176;2023-04-06T14:46:37;14.10;48.40
17202;DHT22;8717;53.588;10.176;2023-04-06T14:49:06;14.20;48.00
17202;DHT22;8717;53.588;10.176;2023-04-06T14:51:33;14.20;46.60
17202;DHT22;8717;53.588;10.176;2023-04-06T14:54:01;14.20;47.90
17202;DHT22;8717;53.588;10.176;2023-04-06T14:56:28;14.20;47.90
17202;DHT22;8717;53.588;10.176;2023-04-06T14:58:58;14.20;48.50
17202;DHT22;8717;53.588;10.176;2023-04-06T15:01:28;14.20;48.30
17202;DHT22;8717;53.588;10.176;2023-04-06T15:03:55;14.10;47.20
17202;DHT22;8717;53.588;10.176;2023-04-06T15:06:21;14.00;46.90
17202;DHT22;8717;53.588;10.176;2023-04-06T15:08:49;13.90;46.90
17202;DHT22;8717;53.588;10.176;2023-04-06T15:11:15;13.70;47.20
17202;DHT22;8717;53.588;10.176;2023-04-06T15:13:42;13.70;48.10
17202;DHT22;8717;53.588;10.176;2023-04-06T15:16:09;13.60;48.20
17202;DHT22;8717;53.588;10.176;2023-04-06T15:18:37;13.60;48.80
17202;DHT22;8717;53.588;10.176;2023-04-06T15:21:04;13.60;48.90
17202;DHT22;8717;53.588;10.176;2023-04-06T15:23:31;13.60;48.50
17202;DHT22;8717;53.588;10.176;2023-04-06T15:25:59;13.70;48.80
17202;DHT22;8717;53.588;10.176;2023-04-06T15:28:26;13.70;49.50
17202;DHT22;8717;53.588;10.176;2023-04-06T15:30:54;13.70;49.50
17202;DHT22;8717;53.588;10.176;2023-04-06T15:33:21;13.70;49.40
17202;DHT22;8717;53.588;10.176;2023-04-06T15:35:49;13.80;48.50
17202;DHT22;8717;53.588;10.176;2023-04-06T15:38:16;13.70;48.30
17202;DHT22;8717;53.588;10.176;2023-04-06T15:40:44;13.50;47.40
17202;DHT22;8717;53.588;10.176;2023-04-06T15:43:11;13.40;47.60
17202;DHT22;8717;53.588;10.176;2023-04-06T15:45:38;13.40;48.30
17202;DHT22;8717;53.588;10.176;2023-04-06T15:48:06;13.40;48.60